createdAt,value
2022-11-27T09:08:57.434Z,4.60
2022-11-27T09:13:51.630Z,4.82
2022-11-27T09:16:21.111Z,4.70
2022-11-27T09:18:50.223Z,5.78
2022-11-27T09:21:19.283Z,5.45
2022-11-27T09:23:46.232Z,5.32
2022-11-27T09:26:15.931Z,5.05
2022-11-27T09:28:44.055Z,5.25
2022-11-27T09:31:13.589Z,5.30
2022-11-27T09:33:41.910Z,5.78
2022-11-27T09:36:14.587Z,5.35
2022-11-27T09:38:42.534Z,4.80
2022-11-27T09:41:18.197Z,5.32
2022-11-27T09:43:53.558Z,5.07
2022-11-27T09:46:32.022Z,5.20
2022-11-27T09:49:03.486Z,5.22
2022-11-27T09:52:00.075Z,4.50
2022-11-27T09:54:35.302Z,4.95
2022-11-27T09:57:03.903Z,5.63
2022-11-27T09:59:49.517Z,5.28
2022-11-27T10:02:30.695Z,5.07
2022-11-27T10:05:13.335Z,4.53
2022-11-27T10:08:06.368Z,4.75
2022-11-27T10:10:39.533Z,4.60
2022-11-27T10:13:24.400Z,4.05
2022-11-27T10:16:00.860Z,5.25
2022-11-27T10:18:27.639Z,5.32
2022-11-27T10:21:09.395Z,5.50
2022-11-27T10:23:57.261Z,4.00
2022-11-27T10:26:34.915Z,5.00
2022-11-27T10:29:47.335Z,5.20
2022-11-27T10:32:53.667Z,5.00
2022-11-27T10:35:15.508Z,4.47
2022-11-27T10:37:48.931Z,4.45
2022-11-27T10:40:29.005Z,4.93
2022-11-27T10:43:23.662Z,5.50
2022-11-27T10:45:53.056Z,4.70
2022-11-27T10:48:20.951Z,5.82
2022-11-27T10:50:48.248Z,5.72
2022-11-27T10:53:33.732Z,5.30
2022-11-27T10:56:12.536Z,4.05
2022-11-27T10:59:23.347Z,4.20
2022-11-27T11:01:53.418Z,5.40
2022-11-27T11:04:37.601Z,4.72
2022-11-27T11:07:24.203Z,4.72
2022-11-27T11:09:51.887Z,4.55
2022-11-27T11:12:21.581Z,4.78
2022-11-27T11:15:11.729Z,4.03
2022-11-27T11:17:38.698Z,4.88
2022-11-27T11:20:34.992Z,5.40
2022-11-27T11:23:01.901Z,2.95
2022-11-27T11:25:28.803Z,3.83
2022-11-27T11:27:55.771Z,2.75
2022-11-27T11:30:29.605Z,3.15
2022-11-27T11:33:03.950Z,2.58
2022-11-27T11:35:35.289Z,3.00
2022-11-27T11:38:05.335Z,2.45
2022-11-27T11:40:34.429Z,3.38
2022-11-27T11:43:10.098Z,2.70
2022-11-27T11:45:46.734Z,2.47
2022-11-27T11:48:24.942Z,3.42
2022-11-27T11:50:54.290Z,3.65
2022-11-27T11:53:36.334Z,3.15
2022-11-27T11:56:18.382Z,3.37
2022-11-27T11:58:56.045Z,2.58
2022-11-27T12:01:56.860Z,3.00
2022-11-27T12:04:53.953Z,3.60
2022-11-27T12:08:08.299Z,2.83
2022-11-27T12:11:10.148Z,2.40
2022-11-27T12:14:14.460Z,2.40
2022-11-27T12:17:20.123Z,3.63
2022-11-27T12:20:17.461Z,2.78
2022-11-27T12:22:50.189Z,2.67
2022-11-27T12:25:26.058Z,2.97
2022-11-27T12:28:47.919Z,3.13
2022-11-27T12:31:47.678Z,3.55
2022-11-27T12:35:05.568Z,4.03
2022-11-27T12:37:53.139Z,2.80
2022-11-27T12:40:35.255Z,4.70
2022-11-27T12:43:24.538Z,3.10
2022-11-27T12:46:00.354Z,3.75
2022-11-27T12:48:36.586Z,3.28
2022-11-27T12:51:10.910Z,3.53
2022-11-27T12:53:52.125Z,4.45
2022-11-27T12:56:33.005Z,3.08
2022-11-27T12:59:23.706Z,3.13
2022-11-27T13:02:01.498Z,4.10
2022-11-27T13:04:46.008Z,3.83
2022-11-27T13:07:15.410Z,4.05
2022-11-27T13:09:57.017Z,3.42
2022-11-27T13:12:34.683Z,4.30
2022-11-27T13:15:08.291Z,3.75
2022-11-27T13:17:40.965Z,4.05
2022-11-27T13:22:47.521Z,3.55
2022-11-27T13:25:14.943Z,3.95
2022-11-27T13:27:46.639Z,4.32
2022-11-27T13:30:25.850Z,3.53
2022-11-27T13:32:56.410Z,3.85
2022-11-27T13:35:40.190Z,5.68
2022-11-27T13:38:24.110Z,4.18
2022-11-27T13:40:55.883Z,8.13
2022-11-27T13:43:42.518Z,9.17
2022-11-27T13:46:13.563Z,4.78
2022-11-27T13:48:50.163Z,4.00
2022-11-27T13:51:38.451Z,4.40
2022-11-27T13:54:18.154Z,3.55
2022-11-27T13:56:45.217Z,3.85
2022-11-27T13:59:21.770Z,4.55
2022-11-27T14:01:58.554Z,3.95
2022-11-27T14:04:26.963Z,4.00
2022-11-27T14:07:17.496Z,4.20
2022-11-27T14:09:53.218Z,5.13
2022-11-27T14:12:27.175Z,5.07
2022-11-27T14:15:20.569Z,4.43
2022-11-27T14:17:52.522Z,4.45
2022-11-27T14:20:26.468Z,4.35
2022-11-27T14:23:14.255Z,4.25
2022-11-27T14:25:41.665Z,3.63
2022-11-27T14:28:27.368Z,4.47
2022-11-27T14:30:59.506Z,4.47
2022-11-27T14:33:29.366Z,3.72
2022-11-27T14:36:00.723Z,4.30
2022-11-27T14:38:29.674Z,4.70
2022-11-27T14:41:11.756Z,4.30
2022-11-27T14:43:38.626Z,4.40
2022-11-27T14:46:09.628Z,4.85
2022-11-27T14:48:56.834Z,4.63
2022-11-27T14:51:29.725Z,4.13
2022-11-27T14:54:05.695Z,4.47
2022-11-27T14:56:43.446Z,4.75
2022-11-27T14:59:18.973Z,5.00
2022-11-27T15:01:57.370Z,5.28
2022-11-27T15:04:35.872Z,4.95
2022-11-27T15:07:09.173Z,4.65
2022-11-27T15:09:36.405Z,21.38
2022-11-27T15:12:14.271Z,9.20
2022-11-27T15:15:02.789Z,6.28
2022-11-27T15:17:33.560Z,6.57
2022-11-27T15:20:02.946Z,6.90
2022-11-27T15:22:33.382Z,7.93
2022-11-27T15:25:07.406Z,6.72
2022-11-27T15:27:46.485Z,6.03
2022-11-27T15:30:20.622Z,4.68
2022-11-27T15:32:52.839Z,5.45
2022-11-27T15:35:33.418Z,4.88
2022-11-27T15:38:08.143Z,4.55
2022-11-27T15:40:38.436Z,3.78
2022-11-27T15:43:16.038Z,5.32
2022-11-27T15:45:44.325Z,4.38
2022-11-27T15:48:19.181Z,4.18
2022-11-27T15:50:51.325Z,3.92
2022-11-27T15:53:18.823Z,5.78
2022-11-27T15:55:45.676Z,5.80
2022-11-27T15:58:12.515Z,4.00
2022-11-27T16:00:40.602Z,4.57
2022-11-27T16:03:07.497Z,3.83
2022-11-27T16:05:34.437Z,9.55
2022-11-27T16:08:01.404Z,6.15
2022-11-27T16:10:28.362Z,5.50
2022-11-27T16:12:55.600Z,9.02
2022-11-27T16:15:23.569Z,6.10
2022-11-27T16:17:51.815Z,4.90
2022-11-27T16:20:18.625Z,5.97
2022-11-27T16:22:45.504Z,6.22
2022-11-27T16:25:15.544Z,6.05
2022-11-27T16:27:42.349Z,6.80
2022-11-27T16:30:09.664Z,7.22
2022-11-27T16:32:40.329Z,7.38
2022-11-27T16:35:08.693Z,8.55
2022-11-27T16:37:35.907Z,10.05
2022-11-27T16:40:03.559Z,8.00
2022-11-27T16:42:32.292Z,8.43
2022-11-27T16:44:59.222Z,8.02
2022-11-27T16:47:32.061Z,10.50
2022-11-27T16:50:00.913Z,9.75
2022-11-27T16:52:29.062Z,9.60
2022-11-27T16:54:56.527Z,8.80
2022-11-27T16:57:23.763Z,12.35
2022-11-27T16:59:53.810Z,12.88
2022-11-27T17:02:20.775Z,13.60
2022-11-27T17:04:47.769Z,11.18
2022-11-27T17:07:14.581Z,11.98
2022-11-27T17:09:42.233Z,9.65
2022-11-27T17:12:09.091Z,10.57
2022-11-27T17:14:37.003Z,8.95
2022-11-27T17:17:06.172Z,10.38
2022-11-27T17:19:35.378Z,9.45
2022-11-27T17:22:02.174Z,10.20
2022-11-27T17:24:36.838Z,10.15
2022-11-27T17:27:06.320Z,9.52
2022-11-27T17:29:35.602Z,8.80
2022-11-27T17:32:03.444Z,8.05
2022-11-27T17:34:30.371Z,8.77
2022-11-27T17:36:58.660Z,9.02
2022-11-27T17:39:26.553Z,9.50
2022-11-27T17:41:55.892Z,10.02
2022-11-27T17:44:22.822Z,11.45
2022-11-27T17:46:50.794Z,11.07
2022-11-27T17:49:19.672Z,10.32
2022-11-27T17:51:48.818Z,9.05
2022-11-27T17:54:15.748Z,8.80
2022-11-27T17:56:43.017Z,9.15
2022-11-27T17:59:10.188Z,7.78
2022-11-27T18:01:37.365Z,9.05
2022-11-27T18:04:05.442Z,8.85
2022-11-27T18:06:33.631Z,8.85
2022-11-27T18:09:01.242Z,9.52
2022-11-27T18:11:31.271Z,9.77
2022-11-27T18:14:00.493Z,7.70
2022-11-27T18:16:37.300Z,9.10
2022-11-27T18:19:07.750Z,8.55
2022-11-27T18:21:36.139Z,8.55
2022-11-27T18:29:41.233Z,8.40
2022-11-27T18:32:09.090Z,6.68
2022-11-27T18:34:38.202Z,8.40
2022-11-27T18:37:05.879Z,7.22
2022-11-27T18:39:33.444Z,8.30
2022-11-27T18:42:00.306Z,8.38
2022-11-27T18:44:27.331Z,8.73
2022-11-27T18:46:54.868Z,13.13
2022-11-27T18:49:23.282Z,8.95
2022-11-27T18:51:52.458Z,8.43
2022-11-27T18:54:19.994Z,8.95
2022-11-27T18:56:46.939Z,7.78
2022-11-27T18:59:13.824Z,8.40
2022-11-27T19:01:42.539Z,8.40
2022-11-27T19:04:11.283Z,8.23
2022-11-27T19:06:39.261Z,8.73
2022-11-27T19:09:06.878Z,9.50
2022-11-27T19:11:34.888Z,9.80
2022-11-27T19:14:05.091Z,9.50
2022-11-27T19:16:35.533Z,8.23
2022-11-27T19:19:06.347Z,8.63
2022-11-27T19:21:34.935Z,9.68
2022-11-27T19:24:04.034Z,8.90
2022-11-27T19:26:40.024Z,10.10
2022-11-27T19:29:09.208Z,9.10
2022-11-27T19:31:39.745Z,9.98
2022-11-27T19:34:07.659Z,10.13
2022-11-27T19:36:35.774Z,10.20
2022-11-27T19:39:14.578Z,9.48
2022-11-27T19:41:43.341Z,9.10
2022-11-27T19:44:12.695Z,9.52
2022-11-27T19:46:40.936Z,9.60
2022-11-27T19:49:12.442Z,9.23
2022-11-27T19:51:41.728Z,9.90
2022-11-27T19:54:13.103Z,11.05
2022-11-27T19:56:40.592Z,7.13
2022-11-27T19:59:08.441Z,7.35
2022-11-27T20:01:37.464Z,7.05
2022-11-27T20:04:04.802Z,7.75
2022-11-27T20:06:32.218Z,7.63
2022-11-27T20:09:01.595Z,8.50
2022-11-27T20:11:35.149Z,8.98
2022-11-27T20:14:04.708Z,8.63
2022-11-27T20:16:33.575Z,9.20
2022-11-27T20:19:02.748Z,8.20
2022-11-27T20:21:29.604Z,7.43
2022-11-27T20:23:57.962Z,7.35
2022-11-27T20:26:27.327Z,6.43
2022-11-27T20:28:55.100Z,7.95
2022-11-27T20:31:24.880Z,6.50
2022-11-27T20:33:55.434Z,7.03
2022-11-27T20:36:23.678Z,6.47
2022-11-27T20:38:52.266Z,6.47
2022-11-27T20:41:21.576Z,6.60
2022-11-27T20:43:50.804Z,6.63
2022-11-27T20:46:18.304Z,6.70
2022-11-27T20:48:47.001Z,6.72
2022-11-27T20:51:16.814Z,5.90
2022-11-27T20:53:45.589Z,6.75
2022-11-27T20:56:15.400Z,6.25
2022-11-27T20:58:43.686Z,6.88
2022-11-27T21:01:33.555Z,6.93
2022-11-27T21:04:04.382Z,6.65
2022-11-27T21:06:33.545Z,7.28
2022-11-27T21:09:07.157Z,7.53
2022-11-27T21:11:36.762Z,8.25
2022-11-27T21:14:08.352Z,12.68
2022-11-27T21:16:38.531Z,10.63
2022-11-27T21:19:08.423Z,11.52
2022-11-27T21:21:35.408Z,11.27
2022-11-27T21:24:02.431Z,11.73
2022-11-27T21:26:29.606Z,11.38
